Terminal Aerodrome Forecast
Issued by NWS

Home | Current Version | Previous Version | Text Only | Print | Product List | Glossary On
Versions: 1 2 3 4 5 6 7 8 9 10 11 12 13 14 15 16
000
FTUS41 KBTV 031133
TAFMPV
TAF
KMPV 031133Z 0312/0412 00000KT 1/4SM FG VV001
      TEMPO 0312/0314 2SM BR BKN001
     FM031400 00000KT 4SM BR BKN015 OVC035
     FM031600 35006KT P6SM VCSH BKN040
     FM031900 35008KT P6SM SCT050
     FM032300 35005KT P6SM FEW200
     FM040500 00000KT 1/4SM FG VV001=

USA.gov is the U.S. government's official web portal to all federal, state and local government web resources and services.